Nauvoo, Illinois
Current Conditions -  °F | °C
As of 7:55 AM on Saturday 22 Nov 2014 (Local Time) from KEOK Reporting Station
Overcast Overcast  
Wind Chill: 43°   Ceiling: 1700
Heat Index: 48°   Visibility: 10mi
Dew Point: 45°   Wind: 14mph
Humidity: 87%   Direction: 200°SSW
Pressure: 29.96"   Gusts: NA
Location:  40.55°N, 91.38°W
Report Text: KEOK 221355Z AUTO 20012KT 10SM OVC017 09/07 A2996 RMK AO2
Loading
Personal Weather Stations






























Interactive Weather Map New forecast layout! Learn more

10-Day Weather Forecast

Advertisements
Track Severe Weather on mobile